Time;durP1;ratioP1;P1;durP2;ratioP2;P2;SDS_P1;SDS_P2;PMS_P1;PMS_P2;Temp;Humidity;BMP_temperature;BMP_pressure;BME280_temperature;BME280_humidity;BME280_pressure;Samples;Min_cycle;Max_cycle;Signal;HPM_P1;HPM_P2
2023/05/02 00:00:08;;;;;;;3.05;2.40;;;;;;;;;;5018447;28;20107;-72
2023/05/02 00:02:34;;;;;;;2.50;2.20;;;;;;;;;;5020340;28;20558;-70
2023/05/02 00:05:00;;;;;;;2.50;2.30;;;;;;;;;;5019788;28;20042;-70
2023/05/02 00:07:25;;;;;;;2.40;2.20;;;;;;;;;;5020464;28;20068;-70
2023/05/02 00:09:51;;;;;;;4.85;2.05;;;;;;;;;;5019713;28;20045;-69
2023/05/02 00:12:17;;;;;;;8.10;2.60;;;;;;;;;;5019423;28;20414;-70
2023/05/02 00:14:42;;;;;;;2.70;2.50;;;;;;;;;;5035255;28;20057;-70
2023/05/02 00:17:07;;;;;;;3.92;2.95;;;;;;;;;;5019588;28;20049;-69
2023/05/02 00:19:38;;;;;;;3.22;2.72;;;;;;;;;;5020213;28;20049;-70
2023/05/02 00:22:03;;;;;;;5.60;2.92;;;;;;;;;;5018173;28;20544;-69
2023/05/02 00:24:29;;;;;;;3.42;2.67;;;;;;;;;;5019901;28;20045;-70
2023/05/02 00:26:54;;;;;;;5.28;2.83;;;;;;;;;;5020368;28;20060;-69
2023/05/02 00:29:20;;;;;;;3.33;2.88;;;;;;;;;;5019606;28;20088;-69
2023/05/02 00:31:45;;;;;;;3.13;2.92;;;;;;;;;;5020233;28;20045;-69
2023/05/02 00:34:11;;;;;;;4.45;2.97;;;;;;;;;;5017626;28;20045;-70
2023/05/02 00:36:36;;;;;;;3.40;3.10;;;;;;;;;;5015233;28;20093;-69
2023/05/02 00:39:03;;;;;;;3.53;2.80;;;;;;;;;;5009883;28;20052;-69
2023/05/02 00:41:28;;;;;;;3.17;2.88;;;;;;;;;;5017193;28;20072;-69
2023/05/02 00:43:54;;;;;;;2.65;2.45;;;;;;;;;;5019066;28;20123;-69
2023/05/02 00:46:19;;;;;;;3.22;2.92;;;;;;;;;;5020034;28;20140;-69
2023/05/02 00:48:45;;;;;;;2.83;2.53;;;;;;;;;;5035003;28;20409;-69
2023/05/02 00:51:12;;;;;;;2.40;2.20;;;;;;;;;;5019374;28;20087;-68
2023/05/02 00:53:38;;;;;;;2.70;2.50;;;;;;;;;;5018265;28;20223;-69
2023/05/02 00:56:04;;;;;;;2.60;2.40;;;;;;;;;;5018755;28;20095;-69
2023/05/02 00:58:30;;;;;;;3.10;2.80;;;;;;;;;;5019920;28;20042;-69
2023/05/02 01:01:06;;;;;;;2.60;2.40;;;;;;;;;;5019710;28;20064;-68
2023/05/02 01:03:58;;;;;;;2.45;2.25;;;;;;;;;;4982500;28;20112;-69
2023/05/02 01:06:40;;;;;;;3.00;2.70;;;;;;;;;;4998592;28;20048;-69
2023/05/02 01:09:12;;;;;;;2.53;2.30;;;;;;;;;;5023679;28;20561;-68
2023/05/02 01:11:46;;;;;;;;;;;;;;;;;;5014882;28;20041;-69
2023/05/02 01:14:13;;;;;;;3.13;2.28;;;;;;;;;;4997192;28;19917;-70
2023/05/02 01:16:42;;;;;;;2.95;2.72;;;;;;;;;;5005607;28;20076;-69
2023/05/02 01:19:20;;;;;;;2.78;2.50;;;;;;;;;;5001065;28;20052;-69
2023/05/02 01:21:48;;;;;;;2.78;2.58;;;;;;;;;;5002456;28;20064;-69
2023/05/02 01:24:21;;;;;;;3.55;2.78;;;;;;;;;;5018535;28;20705;-69
2023/05/02 01:26:58;;;;;;;3.08;2.40;;;;;;;;;;5002425;28;20057;-69
2023/05/02 01:29:26;;;;;;;3.47;2.20;;;;;;;;;;4996761;28;20062;-69
2023/05/02 01:31:54;;;;;;;2.67;2.38;;;;;;;;;;5016432;28;20096;-69
2023/05/02 01:34:21;;;;;;;2.75;2.53;;;;;;;;;;4998827;28;20065;-69
2023/05/02 01:36:49;;;;;;;2.60;2.40;;;;;;;;;;4999249;28;20497;-68
2023/05/02 01:39:20;;;;;;;3.40;2.40;;;;;;;;;;5018414;28;20041;-69
2023/05/02 01:41:49;;;;;;;2.20;2.00;;;;;;;;;;5022893;28;20041;-69
2023/05/02 01:44:16;;;;;;;3.00;2.55;;;;;;;;;;5022626;28;20041;-69
2023/05/02 01:46:42;;;;;;;3.90;2.70;;;;;;;;;;5037950;28;20045;-69
2023/05/02 01:49:09;;;;;;;2.40;2.20;;;;;;;;;;5036811;28;20064;-68
2023/05/02 01:51:42;;;;;;;2.53;2.33;;;;;;;;;;5022431;28;20044;-69
2023/05/02 01:54:09;;;;;;;2.50;2.30;;;;;;;;;;5022761;28;20048;-70
2023/05/02 01:56:38;;;;;;;3.95;2.20;;;;;;;;;;5022822;28;20042;-70
2023/05/02 01:59:09;;;;;;;2.47;2.28;;;;;;;;;;5037113;28;20124;-69
2023/05/02 02:01:37;;;;;;;2.70;2.50;;;;;;;;;;5036642;28;20049;-69
2023/05/02 02:04:06;;;;;;;2.10;1.90;;;;;;;;;;5022156;28;20043;-68
2023/05/02 02:06:32;;;;;;;2.38;2.17;;;;;;;;;;5022476;28;20581;-69
2023/05/02 02:08:58;;;;;;;5.07;2.30;;;;;;;;;;5036117;28;20438;-69
2023/05/02 02:11:42;;;;;;;2.03;1.88;;;;;;;;;;5018109;28;20057;-68
2023/05/02 02:14:17;;;;;;;2.33;2.13;;;;;;;;;;5021015;28;20120;-69
2023/05/02 02:16:43;;;;;;;2.47;2.28;;;;;;;;;;5020561;28;20980;-69
2023/05/02 02:19:12;;;;;;;5.47;2.30;;;;;;;;;;5037249;28;20045;-69
2023/05/02 02:21:39;;;;;;;5.07;2.35;;;;;;;;;;5022586;28;20053;-69
2023/05/02 02:24:06;;;;;;;4.68;2.45;;;;;;;;;;5018801;28;20060;-69
2023/05/02 02:26:32;;;;;;;2.70;2.50;;;;;;;;;;5022273;28;20157;-69
2023/05/02 02:29:00;;;;;;;3.42;2.53;;;;;;;;;;5021780;28;20140;-69
2023/05/02 02:31:35;;;;;;;2.63;2.42;;;;;;;;;;5037116;28;20762;-68
2023/05/02 02:34:01;;;;;;;2.47;2.28;;;;;;;;;;5015497;28;20052;-69
2023/05/02 02:36:33;;;;;;;3.03;2.22;;;;;;;;;;5020536;28;20171;-68
2023/05/02 02:39:11;;;;;;;3.33;2.78;;;;;;;;;;5021473;28;20148;-69
2023/05/02 02:41:54;;;;;;;2.40;2.20;;;;;;;;;;5022058;28;20130;-69
2023/05/02 02:44:43;;;;;;;3.67;2.20;;;;;;;;;;5019353;28;20044;-68
2023/05/02 02:47:12;;;;;;;2.53;2.33;;;;;;;;;;5020972;28;20059;-68
2023/05/02 02:50:03;;;;;;;2.75;2.10;;;;;;;;;;5021815;28;20137;-68
2023/05/02 02:52:47;;;;;;;2.67;2.47;;;;;;;;;;5036549;28;20054;-69
2023/05/02 02:55:29;;;;;;;3.22;2.15;;;;;;;;;;5018476;28;20041;-68
2023/05/02 02:58:06;;;;;;;2.13;1.92;;;;;;;;;;5036689;28;20052;-68
2023/05/02 03:00:32;;;;;;;2.97;2.50;;;;;;;;;;5020014;28;20052;-68
2023/05/02 03:02:57;;;;;;;2.47;2.28;;;;;;;;;;5020923;28;20033;-70
2023/05/02 03:05:23;;;;;;;3.80;2.08;;;;;;;;;;5021354;28;20037;-69
2023/05/02 03:07:49;;;;;;;2.30;2.10;;;;;;;;;;5020392;28;20049;-69
2023/05/02 03:10:15;;;;;;;1.80;1.70;;;;;;;;;;5036660;28;20051;-70
2023/05/02 03:12:42;;;;;;;2.33;2.03;;;;;;;;;;5036576;28;20041;-70
2023/05/02 03:15:29;;;;;;;4.07;2.28;;;;;;;;;;5033732;28;20042;-70
2023/05/02 03:17:55;;;;;;;3.83;2.10;;;;;;;;;;5035140;28;20033;-70
2023/05/02 03:20:20;;;;;;;2.40;2.20;;;;;;;;;;5036249;28;20040;-69
2023/05/02 03:22:46;;;;;;;2.53;2.30;;;;;;;;;;5036290;28;20045;-69
2023/05/02 03:25:12;;;;;;;2.20;2.00;;;;;;;;;;5033074;28;20037;-70
2023/05/02 03:27:41;;;;;;;3.72;2.25;;;;;;;;;;5009800;28;20053;-69
2023/05/02 03:30:09;;;;;;;3.72;2.20;;;;;;;;;;5034755;28;20034;-69
2023/05/02 03:32:35;;;;;;;3.25;2.38;;;;;;;;;;5017195;28;20037;-69
2023/05/02 03:35:01;;;;;;;2.53;2.30;;;;;;;;;;5035030;28;20065;-69
2023/05/02 03:37:34;;;;;;;2.00;1.90;;;;;;;;;;5035827;28;20144;-69
2023/05/02 03:39:59;;;;;;;2.03;1.83;;;;;;;;;;5017711;28;20041;-69
2023/05/02 03:42:25;;;;;;;2.30;2.10;;;;;;;;;;5035509;28;20033;-69
2023/05/02 03:44:53;;;;;;;2.50;2.30;;;;;;;;;;5017690;28;20053;-69
2023/05/02 03:47:19;;;;;;;2.65;2.40;;;;;;;;;;5034742;28;20045;-69
2023/05/02 03:49:45;;;;;;;2.88;2.22;;;;;;;;;;5035747;28;20135;-69
2023/05/02 03:52:13;;;;;;;3.05;2.67;;;;;;;;;;5032495;28;20045;-69
2023/05/02 03:54:38;;;;;;;4.90;3.03;;;;;;;;;;5018577;28;20102;-69
2023/05/02 03:57:04;;;;;;;3.78;2.53;;;;;;;;;;5034916;28;20044;-69
2023/05/02 03:59:33;;;;;;;4.03;2.65;;;;;;;;;;5035155;28;20448;-68
2023/05/02 04:02:00;;;;;;;4.13;2.60;;;;;;;;;;5014650;28;20042;-71
2023/05/02 04:04:35;;;;;;;2.80;2.60;;;;;;;;;;5017944;28;20045;-71
2023/05/02 04:07:01;;;;;;;2.30;2.10;;;;;;;;;;5033743;28;20041;-72
2023/05/02 04:09:27;;;;;;;2.30;2.10;;;;;;;;;;5004595;28;20129;-72
2023/05/02 04:11:57;;;;;;;2.78;2.25;;;;;;;;;;5033599;28;20080;-71
2023/05/02 04:14:23;;;;;;;2.38;2.17;;;;;;;;;;5033099;28;20065;-71
2023/05/02 04:16:51;;;;;;;2.60;2.40;;;;;;;;;;5022698;28;20065;-71
2023/05/02 04:19:23;;;;;;;2.17;1.98;;;;;;;;;;5007366;28;20041;-72
2023/05/02 04:21:48;;;;;;;2.30;2.03;;;;;;;;;;5030790;28;20049;-71
2023/05/02 04:24:14;;;;;;;2.65;2.28;;;;;;;;;;5013838;28;20409;-71
2023/05/02 04:26:40;;;;;;;2.80;2.28;;;;;;;;;;5014049;28;20058;-72
2023/05/02 04:29:09;;;;;;;2.13;2.03;;;;;;;;;;5024139;28;20736;-72
2023/05/02 04:31:36;;;;;;;2.60;2.40;;;;;;;;;;5030375;28;20103;-72
2023/05/02 04:34:03;;;;;;;2.67;2.20;;;;;;;;;;5027253;28;20533;-72
2023/05/02 04:36:33;;;;;;;2.55;2.35;;;;;;;;;;5014469;28;20041;-72
2023/05/02 04:38:59;;;;;;;7.13;2.35;;;;;;;;;;5027917;28;20478;-73
2023/05/02 04:41:24;;;;;;;5.68;2.50;;;;;;;;;;5015777;28;20042;-72
2023/05/02 04:43:57;;;;;;;;;;;;;;;;;;5034596;28;21035;-72
2023/05/02 04:46:23;;;;;;;2.50;2.00;;;;;;;;;;5033807;28;19920;-72
2023/05/02 04:48:48;;;;;;;2.33;2.13;;;;;;;;;;5019355;28;20802;-74
2023/05/02 04:51:14;;;;;;;2.83;1.90;;;;;;;;;;5019118;28;20711;-72
2023/05/02 04:53:40;;;;;;;2.60;1.95;;;;;;;;;;5018149;28;20437;-72
2023/05/02 04:56:06;;;;;;;2.10;1.90;;;;;;;;;;5031828;28;20041;-71
2023/05/02 04:58:34;;;;;;;2.20;2.00;;;;;;;;;;5020904;28;20045;-72
2023/05/02 05:01:03;;;;;;;2.40;1.92;;;;;;;;;;5016202;28;20042;-73
2023/05/02 05:03:29;;;;;;;1.80;1.70;;;;;;;;;;5010947;28;20057;-70
2023/05/02 05:05:56;;;;;;;2.00;1.80;;;;;;;;;;5015311;28;20128;-71
2023/05/02 05:08:22;;;;;;;2.92;1.92;;;;;;;;;;5019720;28;20046;-70
2023/05/02 05:10:49;;;;;;;2.20;1.73;;;;;;;;;;5012339;28;20053;-71
2023/05/02 05:13:15;;;;;;;2.10;2.00;;;;;;;;;;5031647;28;20096;-71
2023/05/02 05:15:46;;;;;;;2.60;1.85;;;;;;;;;;5020620;28;21058;-70
2023/05/02 05:18:12;;;;;;;4.05;2.00;;;;;;;;;;5016936;28;20034;-71
2023/05/02 05:20:38;;;;;;;2.10;1.90;;;;;;;;;;5013929;28;20042;-70
2023/05/02 05:23:03;;;;;;;2.00;1.90;;;;;;;;;;5007276;28;20498;-71
2023/05/02 05:25:29;;;;;;;2.17;1.80;;;;;;;;;;5032974;28;20037;-71
2023/05/02 05:27:56;;;;;;;2.45;2.00;;;;;;;;;;5004548;28;20054;-71
2023/05/02 05:30:23;;;;;;;2.10;1.85;;;;;;;;;;5018651;28;20194;-70
2023/05/02 05:32:49;;;;;;;1.80;1.70;;;;;;;;;;5034007;28;20073;-71
2023/05/02 05:35:15;;;;;;;2.22;1.95;;;;;;;;;;5012958;28;20077;-71
2023/05/02 05:37:40;;;;;;;2.88;2.13;;;;;;;;;;5015511;28;20041;-71
2023/05/02 05:40:09;;;;;;;2.08;1.90;;;;;;;;;;5036957;28;20048;-71
2023/05/02 05:42:36;;;;;;;2.53;2.33;;;;;;;;;;5037596;28;20045;-71
2023/05/02 05:45:07;;;;;;;3.58;2.10;;;;;;;;;;5036831;28;20253;-71
2023/05/02 05:47:33;;;;;;;1.95;1.67;;;;;;;;;;5020066;28;20064;-70
2023/05/02 05:49:59;;;;;;;2.25;2.00;;;;;;;;;;5036912;28;20041;-70
2023/05/02 05:52:28;;;;;;;2.28;2.08;;;;;;;;;;5036223;28;20037;-70
2023/05/02 05:54:55;;;;;;;1.95;1.80;;;;;;;;;;5036964;28;20080;-70
2023/05/02 05:57:23;;;;;;;2.30;2.10;;;;;;;;;;5034856;28;20038;-70
2023/05/02 05:59:49;;;;;;;2.15;1.95;;;;;;;;;;5032827;28;20056;-70
2023/05/02 06:02:16;;;;;;;2.00;1.90;;;;;;;;;;5036801;28;20529;-70
2023/05/02 06:04:42;;;;;;;2.17;2.05;;;;;;;;;;5037260;28;20049;-70
2023/05/02 06:07:08;;;;;;;2.08;1.98;;;;;;;;;;5035767;28;20041;-70
2023/05/02 06:09:33;;;;;;;2.08;1.88;;;;;;;;;;5019579;28;20080;-70
2023/05/02 06:12:01;;;;;;;2.75;2.10;;;;;;;;;;5028194;28;20041;-71
2023/05/02 06:14:28;;;;;;;1.95;1.85;;;;;;;;;;5036499;28;20069;-70
2023/05/02 06:16:53;;;;;;;5.32;2.00;;;;;;;;;;5037088;28;20072;-70
2023/05/02 06:19:18;;;;;;;2.25;1.98;;;;;;;;;;5020197;28;20052;-70
2023/05/02 06:21:44;;;;;;;2.38;2.10;;;;;;;;;;5020608;28;20100;-71
2023/05/02 06:24:09;;;;;;;3.53;1.92;;;;;;;;;;5014005;28;20077;-70
2023/05/02 06:26:35;;;;;;;2.30;2.10;;;;;;;;;;5017314;28;20395;-70
2023/05/02 06:29:01;;;;;;;2.63;2.40;;;;;;;;;;5020719;28;20099;-70
2023/05/02 06:31:26;;;;;;;5.60;2.60;;;;;;;;;;5021083;28;20152;-72
2023/05/02 06:33:52;;;;;;;2.85;2.20;;;;;;;;;;5021596;28;20056;-71
2023/05/02 06:36:17;;;;;;;3.40;2.42;;;;;;;;;;5020492;28;20049;-69
2023/05/02 06:38:43;;;;;;;4.07;2.42;;;;;;;;;;5011918;28;20046;-71
2023/05/02 06:41:13;;;;;;;2.53;2.33;;;;;;;;;;5019862;28;20049;-72
2023/05/02 06:43:39;;;;;;;2.65;2.40;;;;;;;;;;5019413;28;20050;-73
2023/05/02 06:46:04;;;;;;;2.67;2.42;;;;;;;;;;5021521;28;20041;-71
2023/05/02 06:48:30;;;;;;;2.85;2.35;;;;;;;;;;5021070;28;20042;-74
2023/05/02 06:50:55;;;;;;;2.80;2.53;;;;;;;;;;5020557;28;20091;-71
2023/05/02 06:53:21;;;;;;;3.50;2.60;;;;;;;;;;5014977;28;20047;-74
2023/05/02 06:55:48;;;;;;;2.78;2.30;;;;;;;;;;5014432;28;20140;-72
2023/05/02 06:58:13;;;;;;;2.35;2.15;;;;;;;;;;5015138;28;20523;-71
2023/05/02 07:00:38;;;;;;;2.50;2.30;;;;;;;;;;5018295;28;20060;-70
2023/05/02 07:03:04;;;;;;;2.67;2.10;;;;;;;;;;5020893;28;20045;-70
2023/05/02 07:05:30;;;;;;;3.22;2.35;;;;;;;;;;5017950;28;20057;-69
2023/05/02 07:07:55;;;;;;;2.70;2.50;;;;;;;;;;5020396;28;20044;-70
2023/05/02 07:10:21;;;;;;;3.45;2.45;;;;;;;;;;5017999;28;20490;-71
2023/05/02 07:12:47;;;;;;;2.50;2.30;;;;;;;;;;5020426;28;20076;-71
2023/05/02 07:15:12;;;;;;;4.10;2.60;;;;;;;;;;5019118;28;20068;-71
2023/05/02 07:17:39;;;;;;;2.65;2.13;;;;;;;;;;5019533;28;20380;-71
2023/05/02 07:20:05;;;;;;;4.30;2.47;;;;;;;;;;5017933;28;20486;-74
2023/05/02 07:22:31;;;;;;;2.80;2.33;;;;;;;;;;5035227;28;20424;-72
2023/05/02 07:24:58;;;;;;;2.97;2.67;;;;;;;;;;5009912;28;20041;-73
2023/05/02 07:27:23;;;;;;;4.63;2.30;;;;;;;;;;5017087;28;20085;-72
2023/05/02 07:29:49;;;;;;;2.75;2.55;;;;;;;;;;5011408;28;20148;-71
2023/05/02 07:32:14;;;;;;;2.53;2.33;;;;;;;;;;5020187;28;20041;-73
2023/05/02 07:34:40;;;;;;;2.70;2.50;;;;;;;;;;5020718;28;20046;-72
2023/05/02 07:37:05;;;;;;;3.75;3.10;;;;;;;;;;5031548;28;20124;-73
2023/05/02 07:39:31;;;;;;;2.75;2.40;;;;;;;;;;5009506;28;20049;-70
2023/05/02 07:41:57;;;;;;;3.20;2.90;;;;;;;;;;5017307;28;20049;-70
2023/05/02 07:44:23;;;;;;;5.63;3.33;;;;;;;;;;5011256;28;20049;-71
2023/05/02 07:46:48;;;;;;;3.55;3.25;;;;;;;;;;5016009;28;20143;-71
2023/05/02 07:49:14;;;;;;;3.35;3.05;;;;;;;;;;5013678;28;20041;-71
2023/05/02 07:51:39;;;;;;;3.65;3.15;;;;;;;;;;5012759;28;20064;-73
2023/05/02 07:54:18;;;;;;;3.20;2.90;;;;;;;;;;5009383;28;20038;-73
2023/05/02 07:56:43;;;;;;;4.75;2.88;;;;;;;;;;5011651;28;20049;-73
2023/05/02 07:59:10;;;;;;;4.10;3.42;;;;;;;;;;5009091;28;20052;-72
2023/05/02 08:01:36;;;;;;;4.03;3.58;;;;;;;;;;5011694;28;20521;-72
2023/05/02 08:04:01;;;;;;;6.38;3.55;;;;;;;;;;5014249;28;20133;-72
2023/05/02 08:06:27;;;;;;;3.42;3.13;;;;;;;;;;5018497;28;20102;-70
2023/05/02 08:08:53;;;;;;;5.78;3.40;;;;;;;;;;5018434;28;20155;-71
2023/05/02 08:11:20;;;;;;;4.05;3.53;;;;;;;;;;5017858;28;20081;-71
2023/05/02 08:13:46;;;;;;;4.15;3.58;;;;;;;;;;5018668;28;20045;-72
2023/05/02 08:16:12;;;;;;;6.10;3.22;;;;;;;;;;5017748;28;20044;-73
2023/05/02 08:18:38;;;;;;;4.97;3.30;;;;;;;;;;5018858;28;20037;-73
2023/05/02 08:21:03;;;;;;;6.07;3.50;;;;;;;;;;5017805;28;20054;-72
2023/05/02 08:23:30;;;;;;;3.70;3.38;;;;;;;;;;5012489;28;20054;-71
2023/05/02 08:25:55;;;;;;;3.40;3.10;;;;;;;;;;5017419;28;20045;-71
2023/05/02 08:28:21;;;;;;;5.68;3.83;;;;;;;;;;5017023;28;20631;-71
2023/05/02 08:30:46;;;;;;;7.68;3.20;;;;;;;;;;5016714;28;20053;-72
2023/05/02 08:33:12;;;;;;;7.05;3.88;;;;;;;;;;5009429;28;20057;-71
2023/05/02 08:35:37;;;;;;;4.72;3.90;;;;;;;;;;5018153;28;20530;-73
2023/05/02 08:38:02;;;;;;;7.28;4.15;;;;;;;;;;5013312;28;20065;-71
2023/05/02 08:40:34;;;;;;;4.53;3.92;;;;;;;;;;5018211;28;20502;-70
2023/05/02 08:43:01;;;;;;;5.72;4.25;;;;;;;;;;5017864;28;20076;-71
2023/05/02 08:45:31;;;;;;;4.88;4.28;;;;;;;;;;5018041;28;20053;-72
2023/05/02 08:47:58;;;;;;;4.65;4.00;;;;;;;;;;5016705;28;20061;-72
2023/05/02 08:50:24;;;;;;;4.95;4.35;;;;;;;;;;5017815;28;20068;-74
2023/05/02 08:52:51;;;;;;;5.68;4.47;;;;;;;;;;5017481;28;20418;-72
2023/05/02 08:55:17;;;;;;;7.80;4.20;;;;;;;;;;5017541;28;20402;-71
2023/05/02 08:57:42;;;;;;;4.95;4.40;;;;;;;;;;5011428;28;20499;-70
2023/05/02 09:00:08;;;;;;;5.78;4.50;;;;;;;;;;5006317;28;20053;-71
2023/05/02 09:02:48;;;;;;;5.38;4.78;;;;;;;;;;5017109;28;20064;-72
2023/05/02 09:05:19;;;;;;;7.10;4.75;;;;;;;;;;5017591;28;20506;-71
2023/05/02 09:07:47;;;;;;;5.43;4.93;;;;;;;;;;5017671;28;20053;-71
2023/05/02 09:10:14;;;;;;;5.00;4.60;;;;;;;;;;5017601;28;20453;-70
2023/05/02 09:12:39;;;;;;;7.47;4.93;;;;;;;;;;5017195;28;20060;-71
2023/05/02 09:15:13;;;;;;;14.20;5.05;;;;;;;;;;5017464;28;20041;-73
2023/05/02 09:17:46;;;;;;;8.05;5.03;;;;;;;;;;5017566;28;20159;-74
2023/05/02 09:20:13;;;;;;;9.85;4.70;;;;;;;;;;5010516;28;20037;-74
2023/05/02 09:22:50;;;;;;;5.40;4.50;;;;;;;;;;5015151;28;20853;-72
2023/05/02 09:25:16;;;;;;;5.93;4.63;;;;;;;;;;5013865;28;20132;-72
2023/05/02 09:27:53;;;;;;;5.68;4.70;;;;;;;;;;5017873;28;20042;-73
2023/05/02 09:30:23;;;;;;;5.88;4.38;;;;;;;;;;5016733;28;20084;-73
2023/05/02 09:32:50;;;;;;;5.32;4.63;;;;;;;;;;5017534;28;20569;-73
2023/05/02 09:35:25;;;;;;;5.82;4.55;;;;;;;;;;5016004;28;20049;-73
2023/05/02 09:37:57;;;;;;;5.95;4.90;;;;;;;;;;5016417;28;20334;-72
2023/05/02 09:40:24;;;;;;;5.97;4.90;;;;;;;;;;5017003;28;20101;-73
2023/05/02 09:42:50;;;;;;;6.70;5.13;;;;;;;;;;5018090;28;20107;-72
2023/05/02 09:45:23;;;;;;;6.63;5.10;;;;;;;;;;5020432;28;20589;-75
2023/05/02 09:47:50;;;;;;;5.80;5.20;;;;;;;;;;5019171;28;20132;-74
2023/05/02 09:50:35;;;;;;;9.38;5.00;;;;;;;;;;5020566;28;20049;-74
2023/05/02 09:53:02;;;;;;;8.68;5.03;;;;;;;;;;5015120;28;20421;-73
2023/05/02 09:55:28;;;;;;;6.15;4.97;;;;;;;;;;5016814;28;20533;-72
2023/05/02 09:57:53;;;;;;;6.53;5.28;;;;;;;;;;5020800;28;20053;-72
2023/05/02 10:00:19;;;;;;;6.25;4.72;;;;;;;;;;5035877;28;20127;-72
2023/05/02 10:02:49;;;;;;;8.27;5.32;;;;;;;;;;5020563;28;20095;-72
2023/05/02 10:05:16;;;;;;;6.75;5.60;;;;;;;;;;5018541;28;20391;-73
2023/05/02 10:07:43;;;;;;;6.35;4.93;;;;;;;;;;5020834;28;20136;-71
2023/05/02 10:10:15;;;;;;;6.03;5.15;;;;;;;;;;5012750;28;20045;-74
2023/05/02 10:12:42;;;;;;;7.13;5.10;;;;;;;;;;5022597;28;20041;-73
2023/05/02 10:15:09;;;;;;;5.80;5.15;;;;;;;;;;5017696;28;20045;-74
2023/05/02 10:17:46;;;;;;;6.95;5.50;;;;;;;;;;5018460;28;20091;-75
2023/05/02 10:20:17;;;;;;;7.43;5.75;;;;;;;;;;5013961;28;20037;-73
2023/05/02 10:22:45;;;;;;;5.43;4.93;;;;;;;;;;5020449;28;20049;-73
2023/05/02 10:25:12;;;;;;;6.93;5.88;;;;;;;;;;5021106;28;20537;-70
2023/05/02 10:27:37;;;;;;;10.07;5.25;;;;;;;;;;5021860;28;20064;-72
2023/05/02 10:30:05;;;;;;;7.97;5.18;;;;;;;;;;5037333;28;20053;-73
2023/05/02 10:32:33;;;;;;;6.93;5.25;;;;;;;;;;5020738;28;20042;-74
2023/05/02 10:35:03;;;;;;;5.28;4.70;;;;;;;;;;5021386;28;20063;-73
2023/05/02 10:37:34;;;;;;;6.40;5.10;;;;;;;;;;5031174;28;20110;-74
2023/05/02 10:40:00;;;;;;;8.23;5.07;;;;;;;;;;5022085;28;20509;-71
2023/05/02 10:42:27;;;;;;;5.63;4.60;;;;;;;;;;5021778;28;20033;-72
2023/05/02 10:44:53;;;;;;;7.03;4.63;;;;;;;;;;5016649;28;20301;-71
2023/05/02 10:47:20;;;;;;;7.45;4.60;;;;;;;;;;5017893;28;20782;-71
2023/05/02 10:49:56;;;;;;;6.65;4.68;;;;;;;;;;5020037;28;20053;-71
2023/05/02 10:52:35;;;;;;;5.90;4.43;;;;;;;;;;5017186;28;20510;-72
2023/05/02 10:55:21;;;;;;;7.80;4.07;;;;;;;;;;5020796;28;20057;-73
2023/05/02 10:58:05;;;;;;;7.28;4.35;;;;;;;;;;5021310;28;20464;-73
2023/05/02 11:00:32;;;;;;;5.10;4.57;;;;;;;;;;5020569;28;20099;-73
2023/05/02 11:02:58;;;;;;;5.47;4.43;;;;;;;;;;5018342;28;20139;-73
2023/05/02 11:05:25;;;;;;;5.10;4.60;;;;;;;;;;5019894;28;20053;-73
2023/05/02 11:08:16;;;;;;;6.07;4.40;;;;;;;;;;5021414;28;20048;-73
2023/05/02 11:10:41;;;;;;;7.72;4.60;;;;;;;;;;5020227;28;20507;-72
2023/05/02 11:13:07;;;;;;;5.15;4.65;;;;;;;;;;5012992;28;20053;-71
2023/05/02 11:15:32;;;;;;;6.15;4.97;;;;;;;;;;5021208;28;20041;-71
2023/05/02 11:18:00;;;;;;;6.32;4.70;;;;;;;;;;5021438;28;20049;-72
2023/05/02 11:20:27;;;;;;;6.13;4.82;;;;;;;;;;5020043;28;20041;-72
2023/05/02 11:22:53;;;;;;;4.93;4.43;;;;;;;;;;5020431;28;20122;-72
2023/05/02 11:25:49;;;;;;;5.50;4.07;;;;;;;;;;5020633;28;20063;-72
2023/05/02 11:28:33;;;;;;;4.20;3.80;;;;;;;;;;5010948;28;20121;-73
2023/05/02 11:30:59;;;;;;;5.85;4.03;;;;;;;;;;5020895;28;20114;-73
2023/05/02 11:33:26;;;;;;;5.50;3.92;;;;;;;;;;5019165;28;20060;-73
2023/05/02 11:35:52;;;;;;;4.90;3.58;;;;;;;;;;5020420;28;20049;-73
2023/05/02 11:38:19;;;;;;;4.70;4.30;;;;;;;;;;5019844;28;20052;-72
2023/05/02 11:40:56;;;;;;;5.63;3.90;;;;;;;;;;5020524;28;20041;-73
2023/05/02 11:43:24;;;;;;;7.53;4.80;;;;;;;;;;5018121;28;20056;-73
2023/05/02 11:45:54;;;;;;;4.68;4.20;;;;;;;;;;5036065;28;20444;-70
2023/05/02 11:48:21;;;;;;;6.70;4.55;;;;;;;;;;5010166;28;20444;-72
2023/05/02 11:50:49;;;;;;;7.53;4.85;;;;;;;;;;5020594;28;20418;-73
2023/05/02 11:53:21;;;;;;;6.32;4.97;;;;;;;;;;5014459;28;20061;-71
2023/05/02 11:55:47;;;;;;;;;;;;;;;;;;5010352;28;20115;-72
2023/05/02 11:58:19;;;;;;;4.72;4.32;;;;;;;;;;5019899;28;19928;-71
2023/05/02 12:00:46;;;;;;;6.10;3.40;;;;;;;;;;5020381;28;20616;-71
2023/05/02 12:03:23;;;;;;;3.17;2.78;;;;;;;;;;5007672;28;20048;-72
2023/05/02 12:05:50;;;;;;;2.83;2.28;;;;;;;;;;5005243;28;20042;-72
2023/05/02 12:08:26;;;;;;;4.50;2.70;;;;;;;;;;5019817;28;20037;-74
2023/05/02 12:10:54;;;;;;;3.80;2.45;;;;;;;;;;5018892;28;20049;-72
2023/05/02 12:13:21;;;;;;;3.40;2.80;;;;;;;;;;5018237;28;20041;-72
2023/05/02 12:15:47;;;;;;;2.60;2.40;;;;;;;;;;5018849;28;20142;-72
2023/05/02 12:18:13;;;;;;;4.15;2.90;;;;;;;;;;5017384;28;20037;-72
2023/05/02 12:20:39;;;;;;;4.00;3.05;;;;;;;;;;5019185;28;20049;-73
2023/05/02 12:23:05;;;;;;;4.05;3.17;;;;;;;;;;5033906;28;20060;-73
2023/05/02 12:25:35;;;;;;;3.55;3.25;;;;;;;;;;5015248;28;20129;-74
2023/05/02 12:28:01;;;;;;;3.97;3.05;;;;;;;;;;5011293;28;20056;-74
2023/05/02 12:30:28;;;;;;;2.70;2.50;;;;;;;;;;5019545;28;20056;-74
2023/05/02 12:33:01;;;;;;;2.90;2.60;;;;;;;;;;5019134;28;20132;-74
2023/05/02 12:35:28;;;;;;;4.47;2.90;;;;;;;;;;5019162;28;20045;-72
2023/05/02 12:37:55;;;;;;;5.95;3.10;;;;;;;;;;5014800;28;20052;-72
2023/05/02 12:40:21;;;;;;;4.55;3.92;;;;;;;;;;5011361;28;20170;-74
2023/05/02 12:43:02;;;;;;;5.32;3.42;;;;;;;;;;5015705;28;20163;-73
2023/05/02 12:45:32;;;;;;;3.95;3.42;;;;;;;;;;5018893;28;20041;-73
2023/05/02 12:48:15;;;;;;;4.07;3.35;;;;;;;;;;5018862;28;20049;-74
2023/05/02 12:50:41;;;;;;;4.80;4.38;;;;;;;;;;5011511;28;20503;-74
2023/05/02 12:53:07;;;;;;;8.75;4.43;;;;;;;;;;5019289;28;20073;-74
2023/05/02 12:55:32;;;;;;;6.20;4.32;;;;;;;;;;5018275;28;20053;-74
2023/05/02 12:58:15;;;;;;;8.55;4.28;;;;;;;;;;5034746;28;20051;-72
2023/05/02 13:00:41;;;;;;;5.32;4.57;;;;;;;;;;5011296;28;20072;-72
2023/05/02 13:03:09;;;;;;;4.63;4.15;;;;;;;;;;5019016;28;20041;-72
2023/05/02 13:05:35;;;;;;;4.82;4.00;;;;;;;;;;5015598;28;20537;-72
2023/05/02 13:08:01;;;;;;;5.10;3.92;;;;;;;;;;5019627;28;20063;-73
2023/05/02 13:10:27;;;;;;;5.82;4.00;;;;;;;;;;5017109;28;20156;-73
2023/05/02 13:12:53;;;;;;;3.75;3.40;;;;;;;;;;5019250;28;20128;-73
2023/05/02 13:15:19;;;;;;;6.18;3.85;;;;;;;;;;5008730;28;20152;-74
2023/05/02 13:17:45;;;;;;;4.72;4.20;;;;;;;;;;5021704;28;20140;-73
2023/05/02 13:20:11;;;;;;;4.38;3.97;;;;;;;;;;5023332;28;20103;-72
2023/05/02 13:22:37;;;;;;;8.32;4.50;;;;;;;;;;5015334;28;20037;-72
2023/05/02 13:25:03;;;;;;;6.13;4.28;;;;;;;;;;5012748;28;20179;-72
2023/05/02 13:27:29;;;;;;;5.13;4.18;;;;;;;;;;5033092;28;20052;-72
2023/05/02 13:29:54;;;;;;;5.97;3.60;;;;;;;;;;5014505;28;20041;-73
2023/05/02 13:32:20;;;;;;;4.05;3.67;;;;;;;;;;5012769;28;20050;-74
2023/05/02 13:34:46;;;;;;;4.53;3.53;;;;;;;;;;5017252;28;20045;-72
2023/05/02 13:37:11;;;;;;;3.95;3.50;;;;;;;;;;5037438;28;20512;-71
2023/05/02 13:39:37;;;;;;;3.58;3.25;;;;;;;;;;5022997;28;20460;-71
2023/05/02 13:42:02;;;;;;;4.70;3.58;;;;;;;;;;5018110;28;20132;-73
2023/05/02 13:44:28;;;;;;;3.85;3.50;;;;;;;;;;5019442;28;20049;-73
2023/05/02 13:46:54;;;;;;;9.20;3.30;;;;;;;;;;5019137;28;20122;-73
2023/05/02 13:49:20;;;;;;;3.35;3.08;;;;;;;;;;5020074;28;20501;-74
2023/05/02 13:51:46;;;;;;;5.38;3.05;;;;;;;;;;5036412;28;20049;-73
2023/05/02 13:54:12;;;;;;;3.50;3.20;;;;;;;;;;5019727;28;20052;-72
2023/05/02 13:56:38;;;;;;;3.83;3.22;;;;;;;;;;5020596;28;20037;-71
2023/05/02 13:59:04;;;;;;;3.50;3.20;;;;;;;;;;5019368;28;20506;-72
2023/05/02 14:01:30;;;;;;;4.13;3.33;;;;;;;;;;5018506;28;20066;-72
2023/05/02 14:03:55;;;;;;;3.28;2.97;;;;;;;;;;5033733;28;20049;-72
2023/05/02 14:06:21;;;;;;;3.38;3.08;;;;;;;;;;5002754;28;20553;-73
2023/05/02 14:08:50;;;;;;;5.45;4.28;;;;;;;;;;5018137;28;20987;-73
2023/05/02 14:11:15;;;;;;;4.70;4.20;;;;;;;;;;5016363;28;20052;-73
2023/05/02 14:13:41;;;;;;;4.15;3.55;;;;;;;;;;5014677;28;20049;-72
2023/05/02 14:16:06;;;;;;;5.15;3.60;;;;;;;;;;5016841;28;20045;-73
2023/05/02 14:18:32;;;;;;;3.45;3.15;;;;;;;;;;5012295;28;20115;-72
2023/05/02 14:20:58;;;;;;;3.90;3.60;;;;;;;;;;5010441;28;20060;-72
2023/05/02 14:23:27;;;;;;;3.63;3.30;;;;;;;;;;5014659;28;20046;-72
2023/05/02 14:25:53;;;;;;;4.85;3.42;;;;;;;;;;5008441;28;20045;-71
2023/05/02 14:28:19;;;;;;;3.58;2.88;;;;;;;;;;5017343;28;20558;-69
2023/05/02 14:30:44;;;;;;;4.60;2.40;;;;;;;;;;5015124;28;20059;-71
2023/05/02 14:33:09;;;;;;;2.20;2.00;;;;;;;;;;5020241;28;20488;-71
2023/05/02 14:35:35;;;;;;;5.35;3.10;;;;;;;;;;5012526;28;20570;-71
2023/05/02 14:38:00;;;;;;;2.92;2.70;;;;;;;;;;5015682;28;21030;-71
2023/05/02 14:40:26;;;;;;;3.20;2.88;;;;;;;;;;5006281;28;20419;-74
2023/05/02 14:42:51;;;;;;;3.72;3.00;;;;;;;;;;5009270;28;20051;-73
2023/05/02 14:45:17;;;;;;;6.03;3.17;;;;;;;;;;5010219;28;20671;-72
2023/05/02 14:47:42;;;;;;;4.60;3.22;;;;;;;;;;5027768;28;20090;-72